createdAt,value
2024-04-15T00:02:18.122Z,6.87
2024-04-15T00:04:46.340Z,6.84
2024-04-15T00:07:20.331Z,6.75
2024-04-15T00:09:55.629Z,6.69
2024-04-15T00:12:31.544Z,6.77
2024-04-15T00:15:02.902Z,6.75
2024-04-15T00:17:40.389Z,6.74
2024-04-15T00:20:15.118Z,6.75
2024-04-15T00:22:56.159Z,6.70
2024-04-15T00:25:29.534Z,6.77
2024-04-15T00:28:01.140Z,6.66
2024-04-15T00:30:36.522Z,6.61
2024-04-15T00:33:08.398Z,6.69
2024-04-15T00:35:49.138Z,6.68
2024-04-15T00:38:27.358Z,6.70
2024-04-15T00:40:59.717Z,6.68
2024-04-15T00:43:39.132Z,6.70
2024-04-15T00:46:13.337Z,6.67
2024-04-15T00:48:48.775Z,6.61
2024-04-15T00:51:23.110Z,6.64
2024-04-15T00:54:05.125Z,6.71
2024-04-15T00:56:34.525Z,6.78
2024-04-15T00:59:07.910Z,6.72
2024-04-15T01:01:37.491Z,6.70
2024-04-15T01:04:08.652Z,6.67
2024-04-15T01:06:37.423Z,6.66
2024-04-15T01:09:11.605Z,6.67
2024-04-15T01:11:40.084Z,6.71
2024-04-15T01:14:11.742Z,6.76
2024-04-15T01:16:41.824Z,6.75
2024-04-15T01:19:13.425Z,6.68
2024-04-15T01:21:41.699Z,6.72
2024-04-15T01:24:15.843Z,6.72
2024-04-15T01:26:48.089Z,6.65
2024-04-15T01:29:21.504Z,6.70
2024-04-15T01:31:56.202Z,6.68
2024-04-15T01:34:31.104Z,6.68
2024-04-15T01:37:04.005Z,6.67
2024-04-15T01:39:42.288Z,6.66
2024-04-15T01:42:13.229Z,6.67
2024-04-15T01:44:56.485Z,6.75
2024-04-15T01:47:25.389Z,6.64
2024-04-15T01:50:10.967Z,6.74
2024-04-15T01:52:47.114Z,6.72
2024-04-15T01:55:24.709Z,6.65
2024-04-15T01:57:53.015Z,6.72
2024-04-15T02:00:24.264Z,6.75
2024-04-15T02:02:52.533Z,6.63
2024-04-15T02:05:25.918Z,6.75
2024-04-15T02:08:07.107Z,6.84
2024-04-15T02:10:49.150Z,6.77
2024-04-15T02:13:19.119Z,6.70
2024-04-15T02:15:51.969Z,6.69
2024-04-15T02:18:27.707Z,6.77
2024-04-15T02:21:00.643Z,6.70
2024-04-15T02:23:32.893Z,6.65
2024-04-15T02:26:24.907Z,6.70
2024-04-15T02:28:58.571Z,6.65
2024-04-15T02:31:42.396Z,6.72
2024-04-15T02:34:27.387Z,6.72
2024-04-15T02:37:13.979Z,6.70
2024-04-15T02:39:51.748Z,6.60
2024-04-15T02:42:43.236Z,6.68
2024-04-15T02:45:23.626Z,6.65
2024-04-15T02:47:56.065Z,6.65
2024-04-15T02:50:36.985Z,6.75
2024-04-15T02:53:09.201Z,6.76
2024-04-15T02:55:55.841Z,6.68
2024-04-15T02:58:31.082Z,6.75
2024-04-15T03:01:04.516Z,6.76
2024-04-15T03:03:32.970Z,6.75
2024-04-15T03:06:05.317Z,6.70
2024-04-15T03:08:39.046Z,6.72
2024-04-15T03:11:15.228Z,6.73
2024-04-15T03:13:53.779Z,6.72
2024-04-15T03:16:29.128Z,6.75
2024-04-15T03:19:01.090Z,6.76
2024-04-15T03:21:36.935Z,6.80
2024-04-15T03:24:14.020Z,6.86
2024-04-15T03:26:45.638Z,6.92
2024-04-15T03:29:21.172Z,6.87
2024-04-15T03:31:53.968Z,6.89
2024-04-15T03:34:26.665Z,6.87
2024-04-15T03:37:02.195Z,6.87
2024-04-15T03:39:36.054Z,6.91
2024-04-15T03:42:10.033Z,6.88
2024-04-15T03:45:02.694Z,6.90
2024-04-15T03:47:33.925Z,6.93
2024-04-15T03:50:15.756Z,6.88
2024-04-15T03:52:50.020Z,7.08
2024-04-15T03:55:25.222Z,7.09
2024-04-15T03:57:57.640Z,7.12
2024-04-15T04:00:33.730Z,7.18
2024-04-15T04:03:03.724Z,7.25
2024-04-15T04:05:36.574Z,7.27
2024-04-15T04:08:09.132Z,7.34
2024-04-15T04:10:41.061Z,7.26
2024-04-15T04:13:12.633Z,7.32
2024-04-15T04:15:53.632Z,7.42
2024-04-15T04:18:22.818Z,7.43
2024-04-15T04:20:55.650Z,7.52
2024-04-15T04:23:24.125Z,7.61
2024-04-15T04:26:11.941Z,7.57
2024-04-15T04:28:49.834Z,7.62
2024-04-15T04:34:22.897Z,7.51
2024-04-15T04:37:01.198Z,7.40
2024-04-15T04:39:29.932Z,7.42
2024-04-15T04:42:01.841Z,7.39
2024-04-15T04:44:33.730Z,7.44
2024-04-15T04:47:15.278Z,7.44
2024-04-15T04:49:55.345Z,7.42
2024-04-15T04:52:33.867Z,7.50
2024-04-15T04:55:09.814Z,7.60
2024-04-15T04:57:46.275Z,7.70
2024-04-15T05:00:18.372Z,7.72
2024-04-15T05:03:01.866Z,7.72
2024-04-15T05:05:39.874Z,7.78
2024-04-15T05:08:14.414Z,7.84
2024-04-15T05:10:54.918Z,7.71
2024-04-15T05:13:31.122Z,7.74
2024-04-15T05:16:19.637Z,7.72
2024-04-15T05:19:04.331Z,7.77
2024-04-15T05:21:37.645Z,7.72
2024-04-15T05:24:13.858Z,7.63
2024-04-15T05:26:43.761Z,7.72
2024-04-15T05:29:20.277Z,7.80
2024-04-15T05:31:51.080Z,7.80
2024-04-15T05:34:30.886Z,7.82
2024-04-15T05:37:00.590Z,7.96
2024-04-15T05:39:32.738Z,8.26
2024-04-15T05:42:01.111Z,8.36
2024-04-15T05:44:33.153Z,8.40
2024-04-15T05:47:01.542Z,8.36
2024-04-15T05:49:38.952Z,8.42
2024-04-15T05:52:07.548Z,8.48
2024-04-15T05:54:38.234Z,8.56
2024-04-15T05:57:06.738Z,8.40
2024-04-15T05:59:39.940Z,8.42
2024-04-15T06:02:08.487Z,8.40
2024-04-15T06:04:42.848Z,8.33
2024-04-15T06:07:12.819Z,8.45
2024-04-15T06:09:44.014Z,8.50
2024-04-15T06:12:12.133Z,8.47
2024-04-15T06:14:43.061Z,8.51
2024-04-15T06:17:11.254Z,8.51
2024-04-15T06:19:47.358Z,8.52
2024-04-15T06:22:15.582Z,8.56
2024-04-15T06:24:46.860Z,8.69
2024-04-15T06:27:15.032Z,8.81
2024-04-15T06:29:46.026Z,8.85
2024-04-15T06:32:15.062Z,8.89
2024-04-15T06:34:48.653Z,8.97
2024-04-15T06:37:18.453Z,9.02
2024-04-15T06:39:49.359Z,9.08
2024-04-15T06:42:22.660Z,9.25
2024-04-15T06:44:53.490Z,9.41
2024-04-15T06:47:21.686Z,9.54
2024-04-15T06:49:55.143Z,9.62
2024-04-15T06:52:25.826Z,9.75
2024-04-15T06:54:57.722Z,9.87
2024-04-15T06:57:26.459Z,9.93
2024-04-15T06:59:57.411Z,9.76
2024-04-15T07:02:27.576Z,9.66
2024-04-15T07:05:01.910Z,9.57
2024-04-15T07:07:32.264Z,9.47
2024-04-15T07:10:03.074Z,9.37
2024-04-15T07:12:32.314Z,9.27
2024-04-15T07:15:03.216Z,9.16
2024-04-15T07:17:37.072Z,9.02
2024-04-15T07:20:14.034Z,9.06
2024-04-15T07:22:42.747Z,9.03
2024-04-15T07:25:14.864Z,9.17
2024-04-15T07:27:50.608Z,9.05
2024-04-15T07:30:38.156Z,9.12
2024-04-15T07:33:06.790Z,9.27
2024-04-15T07:35:43.200Z,9.40
2024-04-15T07:38:11.351Z,9.67
2024-04-15T07:40:42.379Z,9.69
2024-04-15T07:43:10.504Z,9.73
2024-04-15T07:45:41.255Z,9.99
2024-04-15T07:48:10.763Z,10.03
2024-04-15T07:50:46.711Z,10.06
2024-04-15T07:53:14.949Z,10.06
2024-04-15T07:55:48.844Z,10.03
2024-04-15T07:58:17.289Z,10.25
2024-04-15T08:00:52.103Z,10.36
2024-04-15T08:03:20.484Z,10.26
2024-04-15T08:05:55.488Z,10.48
2024-04-15T08:08:23.708Z,10.61
2024-04-15T08:10:54.436Z,10.81
2024-04-15T08:13:23.577Z,11.13
2024-04-15T08:15:54.794Z,11.43
2024-04-15T08:18:23.616Z,11.34
2024-04-15T08:21:01.099Z,11.19
2024-04-15T08:23:30.431Z,11.21
2024-04-15T08:26:03.119Z,11.24
2024-04-15T08:28:34.730Z,11.00
2024-04-15T08:31:06.472Z,11.08
2024-04-15T08:33:41.706Z,11.15
2024-04-15T08:36:37.863Z,11.38
2024-04-15T08:39:08.283Z,11.23
2024-04-15T08:42:04.542Z,10.93
2024-04-15T08:44:41.811Z,10.88
2024-04-15T08:47:23.246Z,10.78
2024-04-15T08:49:51.910Z,10.75
2024-04-15T08:52:25.704Z,10.82
2024-04-15T08:54:54.141Z,10.80
2024-04-15T08:57:26.294Z,10.34
2024-04-15T08:59:58.012Z,10.40
2024-04-15T09:02:32.627Z,10.27
2024-04-15T09:05:02.228Z,10.13
2024-04-15T09:07:37.522Z,10.20
2024-04-15T09:10:07.244Z,10.15
2024-04-15T09:12:45.302Z,10.13
2024-04-15T09:15:15.969Z,9.77
2024-04-15T09:17:49.239Z,10.02
2024-04-15T09:20:29.873Z,9.82
2024-04-15T09:23:14.176Z,9.81
2024-04-15T09:25:42.298Z,9.75
2024-04-15T09:28:13.461Z,9.66
2024-04-15T09:30:41.680Z,9.69
2024-04-15T09:33:15.801Z,9.48
2024-04-15T09:35:44.521Z,9.54
2024-04-15T09:38:20.506Z,9.78
2024-04-15T09:40:50.624Z,9.72
2024-04-15T09:43:22.381Z,9.69
2024-04-15T09:45:52.094Z,9.84
2024-04-15T09:48:26.397Z,10.14
2024-04-15T09:51:09.257Z,10.21
2024-04-15T09:53:47.286Z,10.19
2024-04-15T09:56:28.755Z,10.01
2024-04-15T09:59:00.975Z,10.04
2024-04-15T10:01:32.728Z,10.06
2024-04-15T10:04:07.663Z,10.03
2024-04-15T10:06:43.683Z,9.91
2024-04-15T10:09:20.649Z,9.79
2024-04-15T10:11:51.907Z,9.87
2024-04-15T10:14:25.526Z,10.01
2024-04-15T10:16:57.423Z,9.84
2024-04-15T10:19:29.242Z,9.27
2024-04-15T10:21:58.688Z,9.13
2024-04-15T10:24:32.617Z,9.25
2024-04-15T10:27:04.873Z,9.14
2024-04-15T10:29:39.264Z,9.19
2024-04-15T10:32:09.823Z,9.19
2024-04-15T10:34:46.174Z,9.14
2024-04-15T10:37:15.953Z,9.17
2024-04-15T10:39:56.399Z,9.03
2024-04-15T10:42:25.058Z,8.91
2024-04-15T10:44:57.649Z,8.87
2024-04-15T10:47:27.162Z,8.76
2024-04-15T10:49:58.118Z,8.53
2024-04-15T10:52:27.452Z,8.37
2024-04-15T10:55:01.258Z,8.50
2024-04-15T10:57:32.684Z,8.51
2024-04-15T11:00:05.184Z,8.47
2024-04-15T11:02:34.871Z,8.29
2024-04-15T11:05:06.069Z,8.25
2024-04-15T11:07:34.425Z,8.17
2024-04-15T11:10:13.448Z,8.14
2024-04-15T11:12:43.330Z,8.11
2024-04-15T11:15:17.184Z,7.99
2024-04-15T11:17:50.183Z,8.05
2024-04-15T11:20:24.339Z,8.01
2024-04-15T11:22:55.732Z,7.94
2024-04-15T11:25:32.918Z,7.91
2024-04-15T11:28:01.987Z,7.72
2024-04-15T11:30:33.502Z,7.73
2024-04-15T11:33:09.948Z,7.74
2024-04-15T11:35:52.206Z,7.47
2024-04-15T11:38:30.985Z,7.49
2024-04-15T11:41:15.635Z,7.59
2024-04-15T11:43:46.687Z,7.63
2024-04-15T11:46:28.110Z,7.58
2024-04-15T11:49:01.479Z,7.50
2024-04-15T11:51:30.546Z,7.35
2024-04-15T11:54:01.442Z,7.45
2024-04-15T11:56:32.888Z,7.38
2024-04-15T11:59:03.951Z,7.50
2024-04-15T12:01:33.339Z,7.42
2024-04-15T12:04:05.564Z,7.38
2024-04-15T12:06:36.033Z,7.28
2024-04-15T12:09:14.676Z,7.26
2024-04-15T12:11:49.774Z,7.37
2024-04-15T12:14:21.379Z,7.24
2024-04-15T12:16:49.612Z,7.40
2024-04-15T12:19:20.554Z,7.33
2024-04-15T12:21:48.842Z,7.42
2024-04-15T12:24:20.011Z,7.39
2024-04-15T12:26:54.340Z,7.50
2024-04-15T12:29:28.773Z,7.68
2024-04-15T12:31:57.163Z,7.74
2024-04-15T12:34:28.192Z,7.79
2024-04-15T12:36:57.307Z,7.66
2024-04-15T12:39:28.793Z,7.83
2024-04-15T12:42:01.856Z,7.73
2024-04-15T12:44:32.747Z,7.78
2024-04-15T12:47:01.947Z,7.89
2024-04-15T12:49:32.937Z,7.90
2024-04-15T12:52:01.207Z,7.84
2024-04-15T12:54:32.003Z,7.85
2024-04-15T12:57:03.293Z,7.83
2024-04-15T12:59:35.747Z,7.84
2024-04-15T13:02:14.893Z,7.91
2024-04-15T13:04:58.345Z,7.86
2024-04-15T13:07:26.717Z,7.89
2024-04-15T13:10:04.533Z,7.88
2024-04-15T13:12:36.575Z,7.84
2024-04-15T13:15:09.623Z,7.88
2024-04-15T13:17:40.780Z,7.80
2024-04-15T13:23:14.490Z,7.97
2024-04-15T13:25:48.861Z,7.90
2024-04-15T13:28:23.379Z,7.89
2024-04-15T13:30:55.493Z,7.77
2024-04-15T13:33:24.255Z,7.82
2024-04-15T13:35:55.273Z,7.84
2024-04-15T13:38:23.831Z,7.75
2024-04-15T13:40:54.978Z,7.77
2024-04-15T13:43:26.130Z,7.77
2024-04-15T13:45:56.991Z,7.79
2024-04-15T13:48:25.236Z,7.89
2024-04-15T13:50:55.915Z,7.99
2024-04-15T13:53:24.399Z,8.09
2024-04-15T13:55:55.301Z,8.21
2024-04-15T13:58:26.818Z,8.17
2024-04-15T14:00:58.089Z,8.26
2024-04-15T14:03:26.534Z,8.24
2024-04-15T14:05:57.494Z,8.26
2024-04-15T14:08:27.046Z,8.18
2024-04-15T14:10:58.495Z,8.09
2024-04-15T14:13:29.974Z,8.05
2024-04-15T14:16:01.684Z,8.09
2024-04-15T14:18:29.947Z,8.07
2024-04-15T14:21:00.798Z,8.14
2024-04-15T14:23:28.944Z,8.10
2024-04-15T14:26:00.074Z,8.19
2024-04-15T14:28:39.204Z,8.07
2024-04-15T14:31:10.005Z,8.04
2024-04-15T14:33:39.938Z,7.93
2024-04-15T14:36:13.797Z,7.98
2024-04-15T14:38:46.146Z,7.93
2024-04-15T14:41:17.869Z,8.01
2024-04-15T14:43:48.866Z,8.02
2024-04-15T14:46:20.500Z,8.05
2024-04-15T14:48:49.470Z,8.10
2024-04-15T14:51:20.422Z,8.05
2024-04-15T14:53:49.290Z,7.99
2024-04-15T14:56:26.906Z,7.99
2024-04-15T14:58:58.914Z,7.97
2024-04-15T15:01:31.266Z,7.99
2024-04-15T15:04:00.584Z,8.05
2024-04-15T15:06:37.726Z,8.14
2024-04-15T15:09:09.716Z,8.20
2024-04-15T15:11:40.914Z,8.12
2024-04-15T15:14:12.846Z,8.23
2024-04-15T15:16:45.018Z,8.22
2024-04-15T15:19:16.011Z,8.22
2024-04-15T15:22:00.830Z,8.26
2024-04-15T15:24:34.815Z,8.25
2024-04-15T15:27:06.726Z,8.20
2024-04-15T15:29:39.995Z,8.23
2024-04-15T15:32:11.572Z,8.20
2024-04-15T15:34:40.002Z,8.11
2024-04-15T15:37:20.230Z,8.19
2024-04-15T15:39:49.239Z,8.08
2024-04-15T15:42:21.434Z,8.20
2024-04-15T15:44:53.376Z,8.11
2024-04-15T15:47:24.739Z,8.14
2024-04-15T15:49:53.328Z,8.00
2024-04-15T15:52:24.331Z,7.98
2024-04-15T15:54:53.424Z,7.98
2024-04-15T15:57:27.671Z,7.99
2024-04-15T16:00:03.201Z,7.91
2024-04-15T16:02:49.862Z,7.90
2024-04-15T16:05:24.981Z,7.86
2024-04-15T16:08:01.512Z,7.93
2024-04-15T16:10:33.809Z,8.06
2024-04-15T16:13:05.261Z,8.05
2024-04-15T16:15:37.397Z,8.34
2024-04-15T16:18:12.841Z,8.68
2024-04-15T16:20:47.824Z,8.56
2024-04-15T16:23:26.271Z,8.44
2024-04-15T16:26:09.389Z,8.50
2024-04-15T16:28:52.867Z,8.40
2024-04-15T16:31:23.792Z,8.33
2024-04-15T16:33:57.779Z,8.17
2024-04-15T16:36:31.974Z,8.18
2024-04-15T16:39:03.100Z,8.14
2024-04-15T16:41:32.884Z,8.12
2024-04-15T16:44:06.055Z,8.14
2024-04-15T16:46:39.762Z,8.01
2024-04-15T16:49:11.986Z,8.05
2024-04-15T16:51:41.235Z,8.01
2024-04-15T16:54:15.892Z,7.99
2024-04-15T16:56:52.488Z,7.91
2024-04-15T16:59:30.886Z,7.88
2024-04-15T17:02:03.808Z,7.91
2024-04-15T17:04:47.399Z,7.82
2024-04-15T17:07:22.400Z,7.87
2024-04-15T17:09:58.460Z,7.80
2024-04-15T17:12:35.199Z,7.79
2024-04-15T17:15:15.295Z,7.77
2024-04-15T17:17:48.700Z,7.79
2024-04-15T17:20:20.368Z,7.67
2024-04-15T17:22:50.888Z,7.79
2024-04-15T17:25:30.215Z,7.70
2024-04-15T17:28:01.528Z,7.75
2024-04-15T17:30:44.982Z,7.70
2024-04-15T17:33:20.023Z,7.78
2024-04-15T17:35:55.224Z,7.77
2024-04-15T17:38:23.510Z,7.74
2024-04-15T17:40:55.147Z,7.75
2024-04-15T17:43:27.178Z,7.78
2024-04-15T17:46:09.755Z,7.76
2024-04-15T17:48:43.405Z,7.73
2024-04-15T17:51:19.073Z,7.86
2024-04-15T17:53:51.069Z,7.74
2024-04-15T17:56:22.019Z,7.81
2024-04-15T17:58:58.324Z,7.78
2024-04-15T18:01:33.151Z,7.75
2024-04-15T18:04:08.571Z,7.67
2024-04-15T18:06:42.214Z,7.68
2024-04-15T18:09:17.572Z,7.69
2024-04-15T18:11:48.459Z,7.68
2024-04-15T18:14:19.780Z,7.70
2024-04-15T18:16:51.382Z,7.68
2024-04-15T18:19:34.705Z,7.65
2024-04-15T18:22:12.234Z,7.69
2024-04-15T18:24:43.722Z,7.59
2024-04-15T18:27:14.812Z,7.65
2024-04-15T18:29:43.304Z,7.63
2024-04-15T18:32:14.853Z,7.63
2024-04-15T18:34:48.054Z,7.57
2024-04-15T18:37:23.025Z,7.51
2024-04-15T18:39:53.839Z,7.51
2024-04-15T18:42:28.390Z,7.47
2024-04-15T18:44:58.985Z,7.37
2024-04-15T18:47:30.560Z,7.40
2024-04-15T18:50:08.368Z,7.38
2024-04-15T18:52:41.453Z,7.37
2024-04-15T18:55:11.908Z,7.25
2024-04-15T18:57:46.162Z,7.24
2024-04-15T19:00:19.945Z,7.24
2024-04-15T19:02:58.045Z,7.21
2024-04-15T19:05:38.663Z,7.19
2024-04-15T19:08:14.591Z,7.22
2024-04-15T19:10:47.352Z,7.13
2024-04-15T19:13:20.194Z,7.19
2024-04-15T19:15:51.936Z,7.19
2024-04-15T19:18:23.250Z,7.05
2024-04-15T19:21:02.206Z,7.15
2024-04-15T19:24:07.017Z,7.09
2024-04-15T19:26:38.445Z,7.15
2024-04-15T19:29:07.380Z,7.21
2024-04-15T19:31:38.700Z,7.12
2024-04-15T19:34:15.231Z,7.18
2024-04-15T19:36:52.933Z,7.13
2024-04-15T19:39:25.099Z,7.15
2024-04-15T19:42:01.956Z,7.20
2024-04-15T19:44:47.654Z,7.14
2024-04-15T19:47:18.820Z,7.19
2024-04-15T19:49:50.936Z,7.09
2024-04-15T19:52:27.623Z,7.10
2024-04-15T19:54:56.421Z,7.18
2024-04-15T19:57:27.919Z,7.15
2024-04-15T19:59:58.888Z,7.06
2024-04-15T20:02:29.764Z,7.03
2024-04-15T20:04:58.527Z,7.00
2024-04-15T20:07:33.329Z,7.04
2024-04-15T20:10:02.641Z,7.00
2024-04-15T20:12:34.625Z,6.98
2024-04-15T20:15:03.831Z,7.03
2024-04-15T20:17:46.291Z,6.92
2024-04-15T20:20:16.164Z,6.93
2024-04-15T20:22:57.540Z,6.93
2024-04-15T20:25:25.872Z,6.87
2024-04-15T20:27:57.918Z,6.84
2024-04-15T20:30:26.497Z,6.82
2024-04-15T20:32:58.880Z,6.91
2024-04-15T20:35:31.082Z,6.89
2024-04-15T20:38:07.448Z,6.90
2024-04-15T20:40:45.626Z,6.82
2024-04-15T20:43:16.699Z,6.88
2024-04-15T20:45:47.806Z,6.88
2024-04-15T20:48:21.024Z,6.82
2024-04-15T20:50:49.356Z,6.82
2024-04-15T20:53:25.839Z,6.79
2024-04-15T20:55:56.392Z,6.77
2024-04-15T20:58:31.867Z,6.72
2024-04-15T21:01:05.267Z,6.70
2024-04-15T21:03:36.616Z,6.75
2024-04-15T21:06:15.946Z,6.72
2024-04-15T21:08:49.521Z,6.73
2024-04-15T21:11:19.422Z,6.68
2024-04-15T21:13:50.580Z,6.66
2024-04-15T21:16:22.879Z,6.72
2024-04-15T21:18:53.786Z,6.77
2024-04-15T21:21:22.279Z,6.70
2024-04-15T21:23:58.757Z,6.68
2024-04-15T21:26:27.348Z,6.63
2024-04-15T21:28:58.781Z,6.61
2024-04-15T21:31:28.410Z,6.61
2024-04-15T21:34:02.979Z,6.65
2024-04-15T21:36:31.580Z,6.74
2024-04-15T21:39:06.320Z,6.75
2024-04-15T21:41:44.463Z,6.72
2024-04-15T21:44:17.488Z,6.79
2024-04-15T21:46:58.728Z,6.74
2024-04-15T21:49:30.958Z,6.70
2024-04-15T21:52:05.133Z,6.67
2024-04-15T21:54:47.999Z,6.77
2024-04-15T21:57:19.251Z,6.75
2024-04-15T22:00:10.039Z,6.80
2024-04-15T22:02:39.454Z,6.72
2024-04-15T22:05:17.751Z,6.80
2024-04-15T22:07:51.478Z,6.80
2024-04-15T22:10:34.700Z,6.83
2024-04-15T22:13:10.067Z,6.84
2024-04-15T22:15:41.614Z,6.79
2024-04-15T22:18:35.545Z,6.86
2024-04-15T22:21:13.252Z,6.83
2024-04-15T22:23:48.370Z,6.70
2024-04-15T22:26:26.288Z,6.75
2024-04-15T22:28:56.956Z,6.74
2024-04-15T22:31:42.738Z,6.70
2024-04-15T22:34:25.044Z,6.74
2024-04-15T22:37:07.794Z,6.71
2024-04-15T22:39:45.376Z,6.80
2024-04-15T22:42:22.598Z,6.77
2024-04-15T22:44:59.966Z,6.72
2024-04-15T22:47:31.798Z,6.74
2024-04-15T22:50:00.457Z,6.79
2024-04-15T22:52:48.925Z,6.73
2024-04-15T22:55:25.987Z,6.73
2024-04-15T22:57:59.482Z,6.70
2024-04-15T23:00:37.379Z,6.67
2024-04-15T23:03:14.105Z,6.77
2024-04-15T23:05:45.682Z,6.69
2024-04-15T23:08:17.403Z,6.75
2024-04-15T23:10:52.808Z,6.70
2024-04-15T23:13:27.001Z,6.63
2024-04-15T23:16:04.211Z,6.66
2024-04-15T23:18:36.877Z,6.58
2024-04-15T23:21:12.510Z,6.65
2024-04-15T23:23:47.848Z,6.67
2024-04-15T23:26:20.024Z,6.69
2024-04-15T23:28:55.837Z,6.70
2024-04-15T23:31:28.911Z,6.67
2024-04-15T23:34:08.844Z,6.63
2024-04-15T23:36:44.624Z,6.67
2024-04-15T23:39:19.614Z,6.69
2024-04-15T23:41:56.701Z,6.70
2024-04-15T23:44:37.546Z,6.77
2024-04-15T23:47:33.519Z,6.72
2024-04-15T23:50:23.608Z,6.63
2024-04-15T23:53:13.032Z,6.65
2024-04-15T23:56:07.305Z,6.66
2024-04-15T23:58:37.923Z,6.65
